sensor_id;sensor_type;location;lat;lon;timestamp;P1;durP1;ratioP1;P2;durP2;ratioP2
1054;SDS011;516;51.482;7.120;2022-10-16T00:00:29;4.20;;;3.30;;
1054;SDS011;516;51.482;7.120;2022-10-16T00:02:55;5.07;;;3.67;;
1054;SDS011;516;51.482;7.120;2022-10-16T00:05:21;5.67;;;3.30;;
1054;SDS011;516;51.482;7.120;2022-10-16T00:07:46;6.83;;;3.27;;
1054;SDS011;516;51.482;7.120;2022-10-16T00:10:12;4.30;;;3.40;;
1054;SDS011;516;51.482;7.120;2022-10-16T00:12:38;5.13;;;3.47;;
1054;SDS011;516;51.482;7.120;2022-10-16T00:15:04;3.90;;;3.50;;
1054;SDS011;516;51.482;7.120;2022-10-16T00:17:30;4.57;;;3.03;;
1054;SDS011;516;51.482;7.120;2022-10-16T00:19:56;7.43;;;3.50;;
1054;SDS011;516;51.482;7.120;2022-10-16T00:22:22;6.37;;;3.50;;
1054;SDS011;516;51.482;7.120;2022-10-16T00:24:48;4.47;;;2.93;;
1054;SDS011;516;51.482;7.120;2022-10-16T00:27:13;8.43;;;3.33;;
1054;SDS011;516;51.482;7.120;2022-10-16T00:29:39;4.70;;;3.60;;
1054;SDS011;516;51.482;7.120;2022-10-16T00:32:05;3.50;;;3.03;;
1054;SDS011;516;51.482;7.120;2022-10-16T00:34:31;9.43;;;4.00;;
1054;SDS011;516;51.482;7.120;2022-10-16T00:36:56;4.63;;;3.47;;
1054;SDS011;516;51.482;7.120;2022-10-16T00:39:22;7.07;;;3.27;;
1054;SDS011;516;51.482;7.120;2022-10-16T00:41:48;5.07;;;3.20;;
1054;SDS011;516;51.482;7.120;2022-10-16T00:47:11;4.40;;;2.43;;
1054;SDS011;516;51.482;7.120;2022-10-16T00:49:53;5.13;;;3.63;;
1054;SDS011;516;51.482;7.120;2022-10-16T00:52:23;5.33;;;3.10;;
1054;SDS011;516;51.482;7.120;2022-10-16T00:54:49;4.80;;;3.37;;
1054;SDS011;516;51.482;7.120;2022-10-16T00:57:18;5.77;;;2.80;;
1054;SDS011;516;51.482;7.120;2022-10-16T00:59:44;5.57;;;3.40;;
1054;SDS011;516;51.482;7.120;2022-10-16T01:02:12;3.70;;;2.67;;
1054;SDS011;516;51.482;7.120;2022-10-16T01:04:47;3.83;;;3.00;;
1054;SDS011;516;51.482;7.120;2022-10-16T01:15:46;2.73;;;2.43;;
1054;SDS011;516;51.482;7.120;2022-10-16T01:18:00;2.93;;;2.20;;
1054;SDS011;516;51.482;7.120;2022-10-16T01:21:08;4.53;;;2.40;;
1054;SDS011;516;51.482;7.120;2022-10-16T01:26:31;5.80;;;2.57;;
1054;SDS011;516;51.482;7.120;2022-10-16T01:29:16;2.47;;;2.27;;
1054;SDS011;516;51.482;7.120;2022-10-16T01:31:47;3.67;;;2.30;;
1054;SDS011;516;51.482;7.120;2022-10-16T01:34:20;5.83;;;3.47;;
1054;SDS011;516;51.482;7.120;2022-10-16T01:36:56;3.50;;;2.50;;
1054;SDS011;516;51.482;7.120;2022-10-16T01:39:30;3.77;;;2.70;;
1054;SDS011;516;51.482;7.120;2022-10-16T01:42:00;3.23;;;2.90;;
1054;SDS011;516;51.482;7.120;2022-10-16T01:44:32;7.57;;;2.70;;
1054;SDS011;516;51.482;7.120;2022-10-16T01:47:01;3.50;;;2.80;;
1054;SDS011;516;51.482;7.120;2022-10-16T01:49:28;3.60;;;2.10;;
1054;SDS011;516;51.482;7.120;2022-10-16T01:51:58;2.67;;;2.10;;
1054;SDS011;516;51.482;7.120;2022-10-16T01:54:27;3.23;;;2.93;;
1054;SDS011;516;51.482;7.120;2022-10-16T01:56:56;3.23;;;2.67;;
1054;SDS011;516;51.482;7.120;2022-10-16T01:59:23;3.63;;;2.33;;
1054;SDS011;516;51.482;7.120;2022-10-16T02:01:52;2.70;;;2.30;;
1054;SDS011;516;51.482;7.120;2022-10-16T02:06:59;3.87;;;2.07;;
1054;SDS011;516;51.482;7.120;2022-10-16T02:09:25;4.53;;;2.07;;
1054;SDS011;516;51.482;7.120;2022-10-16T02:11:55;2.27;;;2.07;;
1054;SDS011;516;51.482;7.120;2022-10-16T02:14:24;4.47;;;3.30;;
1054;SDS011;516;51.482;7.120;2022-10-16T02:16:51;4.90;;;2.57;;
1054;SDS011;516;51.482;7.120;2022-10-16T02:19:17;3.70;;;2.37;;
1054;SDS011;516;51.482;7.120;2022-10-16T02:21:49;2.90;;;2.13;;
1054;SDS011;516;51.482;7.120;2022-10-16T02:27:00;5.53;;;2.47;;
1054;SDS011;516;51.482;7.120;2022-10-16T02:29:29;4.00;;;2.27;;
1054;SDS011;516;51.482;7.120;2022-10-16T02:31:57;2.90;;;2.60;;
1054;SDS011;516;51.482;7.120;2022-10-16T02:34:25;4.00;;;2.27;;
1054;SDS011;516;51.482;7.120;2022-10-16T02:36:53;3.17;;;2.50;;
1054;SDS011;516;51.482;7.120;2022-10-16T02:39:20;2.90;;;2.40;;
1054;SDS011;516;51.482;7.120;2022-10-16T02:41:46;4.67;;;2.67;;
1054;SDS011;516;51.482;7.120;2022-10-16T02:44:12;3.77;;;2.60;;
1054;SDS011;516;51.482;7.120;2022-10-16T02:46:38;3.97;;;2.37;;
1054;SDS011;516;51.482;7.120;2022-10-16T02:49:03;5.40;;;2.77;;
1054;SDS011;516;51.482;7.120;2022-10-16T02:51:29;4.43;;;3.00;;
1054;SDS011;516;51.482;7.120;2022-10-16T02:53:55;4.47;;;2.13;;
1054;SDS011;516;51.482;7.120;2022-10-16T02:56:20;6.10;;;2.40;;
1054;SDS011;516;51.482;7.120;2022-10-16T02:58:47;3.30;;;2.50;;
1054;SDS011;516;51.482;7.120;2022-10-16T03:01:13;2.83;;;1.80;;
1054;SDS011;516;51.482;7.120;2022-10-16T03:03:41;3.60;;;2.80;;
1054;SDS011;516;51.482;7.120;2022-10-16T03:06:07;2.23;;;2.03;;
1054;SDS011;516;51.482;7.120;2022-10-16T03:08:33;2.97;;;2.20;;
1054;SDS011;516;51.482;7.120;2022-10-16T03:10:59;7.50;;;2.33;;
1054;SDS011;516;51.482;7.120;2022-10-16T03:13:25;3.23;;;2.00;;
1054;SDS011;516;51.482;7.120;2022-10-16T03:15:50;8.00;;;3.90;;
1054;SDS011;516;51.482;7.120;2022-10-16T03:18:16;4.13;;;2.87;;
1054;SDS011;516;51.482;7.120;2022-10-16T03:20:44;8.20;;;2.50;;
1054;SDS011;516;51.482;7.120;2022-10-16T03:23:10;3.00;;;2.30;;
1054;SDS011;516;51.482;7.120;2022-10-16T03:25:36;2.10;;;1.90;;
1054;SDS011;516;51.482;7.120;2022-10-16T03:28:02;2.83;;;2.50;;
1054;SDS011;516;51.482;7.120;2022-10-16T03:30:28;2.67;;;2.37;;
1054;SDS011;516;51.482;7.120;2022-10-16T03:32:54;4.47;;;2.27;;
1054;SDS011;516;51.482;7.120;2022-10-16T03:35:20;2.53;;;2.33;;
1054;SDS011;516;51.482;7.120;2022-10-16T03:37:46;5.77;;;2.47;;
1054;SDS011;516;51.482;7.120;2022-10-16T03:40:13;3.73;;;2.17;;
1054;SDS011;516;51.482;7.120;2022-10-16T03:42:39;3.10;;;2.23;;
1054;SDS011;516;51.482;7.120;2022-10-16T03:45:05;3.30;;;1.90;;
1054;SDS011;516;51.482;7.120;2022-10-16T03:47:31;3.60;;;2.60;;
1054;SDS011;516;51.482;7.120;2022-10-16T03:49:58;2.70;;;2.50;;
1054;SDS011;516;51.482;7.120;2022-10-16T03:52:24;3.40;;;1.93;;
1054;SDS011;516;51.482;7.120;2022-10-16T03:54:50;2.67;;;2.40;;
1054;SDS011;516;51.482;7.120;2022-10-16T03:57:16;3.43;;;2.50;;
1054;SDS011;516;51.482;7.120;2022-10-16T03:59:42;6.47;;;2.10;;
1054;SDS011;516;51.482;7.120;2022-10-16T04:02:08;5.40;;;2.47;;
1054;SDS011;516;51.482;7.120;2022-10-16T04:04:34;2.40;;;2.00;;
1054;SDS011;516;51.482;7.120;2022-10-16T04:07:00;2.30;;;2.10;;
1054;SDS011;516;51.482;7.120;2022-10-16T04:09:26;2.80;;;2.30;;
1054;SDS011;516;51.482;7.120;2022-10-16T04:11:51;3.50;;;2.00;;
1054;SDS011;516;51.482;7.120;2022-10-16T04:14:17;2.80;;;2.17;;
1054;SDS011;516;51.482;7.120;2022-10-16T04:16:43;3.03;;;1.90;;
1054;SDS011;516;51.482;7.120;2022-10-16T04:19:09;3.13;;;2.37;;
1054;SDS011;516;51.482;7.120;2022-10-16T04:21:36;3.23;;;2.00;;
1054;SDS011;516;51.482;7.120;2022-10-16T04:24:02;5.73;;;1.73;;
1054;SDS011;516;51.482;7.120;2022-10-16T04:26:27;2.00;;;1.80;;
1054;SDS011;516;51.482;7.120;2022-10-16T04:28:53;2.40;;;2.20;;
1054;SDS011;516;51.482;7.120;2022-10-16T04:31:20;3.00;;;2.00;;
1054;SDS011;516;51.482;7.120;2022-10-16T04:33:45;4.37;;;2.30;;
1054;SDS011;516;51.482;7.120;2022-10-16T04:36:11;3.00;;;2.30;;
1054;SDS011;516;51.482;7.120;2022-10-16T04:38:37;3.33;;;2.07;;
1054;SDS011;516;51.482;7.120;2022-10-16T04:41:04;5.20;;;2.47;;
1054;SDS011;516;51.482;7.120;2022-10-16T04:43:30;3.60;;;2.90;;
1054;SDS011;516;51.482;7.120;2022-10-16T04:45:56;2.60;;;2.40;;
1054;SDS011;516;51.482;7.120;2022-10-16T04:48:21;3.53;;;2.13;;
1054;SDS011;516;51.482;7.120;2022-10-16T04:50:47;2.83;;;2.23;;
1054;SDS011;516;51.482;7.120;2022-10-16T04:53:13;3.20;;;2.60;;
1054;SDS011;516;51.482;7.120;2022-10-16T04:55:39;6.70;;;2.27;;
1054;SDS011;516;51.482;7.120;2022-10-16T04:58:06;4.80;;;2.40;;
1054;SDS011;516;51.482;7.120;2022-10-16T05:00:32;2.30;;;1.80;;
1054;SDS011;516;51.482;7.120;2022-10-16T05:02:59;3.17;;;2.47;;
1054;SDS011;516;51.482;7.120;2022-10-16T05:05:26;2.00;;;1.77;;
1054;SDS011;516;51.482;7.120;2022-10-16T05:07:52;3.73;;;2.17;;
1054;SDS011;516;51.482;7.120;2022-10-16T05:10:18;3.70;;;2.20;;
1054;SDS011;516;51.482;7.120;2022-10-16T05:12:44;3.30;;;1.70;;
1054;SDS011;516;51.482;7.120;2022-10-16T05:15:11;4.93;;;1.90;;
1054;SDS011;516;51.482;7.120;2022-10-16T05:17:37;3.37;;;2.23;;
1054;SDS011;516;51.482;7.120;2022-10-16T05:20:03;2.97;;;2.33;;
1054;SDS011;516;51.482;7.120;2022-10-16T05:22:29;6.33;;;2.17;;
1054;SDS011;516;51.482;7.120;2022-10-16T05:24:55;5.50;;;2.83;;
1054;SDS011;516;51.482;7.120;2022-10-16T05:27:21;2.87;;;1.80;;
1054;SDS011;516;51.482;7.120;2022-10-16T05:29:47;3.30;;;1.70;;
1054;SDS011;516;51.482;7.120;2022-10-16T05:32:14;2.50;;;2.30;;
1054;SDS011;516;51.482;7.120;2022-10-16T05:34:41;2.37;;;2.17;;
1054;SDS011;516;51.482;7.120;2022-10-16T05:37:07;4.17;;;2.70;;
1054;SDS011;516;51.482;7.120;2022-10-16T05:39:33;2.53;;;2.13;;
1054;SDS011;516;51.482;7.120;2022-10-16T05:41:58;3.27;;;2.00;;
1054;SDS011;516;51.482;7.120;2022-10-16T05:44:24;4.23;;;2.20;;
1054;SDS011;516;51.482;7.120;2022-10-16T05:46:50;5.10;;;2.93;;
1054;SDS011;516;51.482;7.120;2022-10-16T05:49:15;5.30;;;2.20;;
1054;SDS011;516;51.482;7.120;2022-10-16T05:51:41;4.40;;;1.90;;
1054;SDS011;516;51.482;7.120;2022-10-16T05:54:07;4.00;;;2.37;;
1054;SDS011;516;51.482;7.120;2022-10-16T05:56:33;2.20;;;2.00;;
1054;SDS011;516;51.482;7.120;2022-10-16T05:58:59;3.17;;;2.60;;
1054;SDS011;516;51.482;7.120;2022-10-16T06:01:24;4.03;;;2.37;;
1054;SDS011;516;51.482;7.120;2022-10-16T06:03:51;2.33;;;2.13;;
1054;SDS011;516;51.482;7.120;2022-10-16T06:06:18;3.60;;;2.10;;
1054;SDS011;516;51.482;7.120;2022-10-16T06:08:46;6.73;;;2.20;;
1054;SDS011;516;51.482;7.120;2022-10-16T06:11:17;3.30;;;2.37;;
1054;SDS011;516;51.482;7.120;2022-10-16T06:13:44;3.47;;;2.60;;
1054;SDS011;516;51.482;7.120;2022-10-16T06:16:13;4.03;;;2.27;;
1054;SDS011;516;51.482;7.120;2022-10-16T06:18:39;2.60;;;2.23;;
1054;SDS011;516;51.482;7.120;2022-10-16T06:21:08;3.77;;;2.43;;
1054;SDS011;516;51.482;7.120;2022-10-16T06:23:55;4.63;;;2.63;;
1054;SDS011;516;51.482;7.120;2022-10-16T06:26:22;5.03;;;2.23;;
1054;SDS011;516;51.482;7.120;2022-10-16T06:28:54;5.77;;;2.13;;
1054;SDS011;516;51.482;7.120;2022-10-16T06:31:20;3.90;;;2.20;;
1054;SDS011;516;51.482;7.120;2022-10-16T06:33:49;3.93;;;2.47;;
1054;SDS011;516;51.482;7.120;2022-10-16T06:36:16;4.20;;;2.10;;
1054;SDS011;516;51.482;7.120;2022-10-16T06:38:43;4.93;;;2.77;;
1054;SDS011;516;51.482;7.120;2022-10-16T06:41:10;4.87;;;2.60;;
1054;SDS011;516;51.482;7.120;2022-10-16T06:43:37;2.67;;;2.47;;
1054;SDS011;516;51.482;7.120;2022-10-16T06:46:03;2.47;;;2.23;;
1054;SDS011;516;51.482;7.120;2022-10-16T06:48:32;3.33;;;2.20;;
1054;SDS011;516;51.482;7.120;2022-10-16T06:50:59;3.67;;;2.80;;
1054;SDS011;516;51.482;7.120;2022-10-16T06:53:28;2.50;;;2.30;;
1054;SDS011;516;51.482;7.120;2022-10-16T06:55:56;3.13;;;2.20;;
1054;SDS011;516;51.482;7.120;2022-10-16T06:58:22;3.37;;;2.47;;
1054;SDS011;516;51.482;7.120;2022-10-16T07:00:48;3.30;;;2.83;;
1054;SDS011;516;51.482;7.120;2022-10-16T07:03:19;3.30;;;2.37;;
1054;SDS011;516;51.482;7.120;2022-10-16T07:05:45;3.30;;;2.03;;
1054;SDS011;516;51.482;7.120;2022-10-16T07:08:10;3.00;;;2.63;;
1054;SDS011;516;51.482;7.120;2022-10-16T07:10:36;4.33;;;2.90;;
1054;SDS011;516;51.482;7.120;2022-10-16T07:13:02;3.13;;;2.33;;
1054;SDS011;516;51.482;7.120;2022-10-16T07:15:28;2.47;;;2.23;;
1054;SDS011;516;51.482;7.120;2022-10-16T07:17:53;4.50;;;2.50;;
1054;SDS011;516;51.482;7.120;2022-10-16T07:20:19;3.23;;;2.30;;
1054;SDS011;516;51.482;7.120;2022-10-16T07:22:46;5.33;;;2.50;;
1054;SDS011;516;51.482;7.120;2022-10-16T07:25:11;5.67;;;2.70;;
1054;SDS011;516;51.482;7.120;2022-10-16T07:27:37;3.07;;;2.57;;
1054;SDS011;516;51.482;7.120;2022-10-16T07:30:03;3.50;;;3.00;;
1054;SDS011;516;51.482;7.120;2022-10-16T07:32:29;2.93;;;2.63;;
1054;SDS011;516;51.482;7.120;2022-10-16T07:34:56;3.20;;;2.20;;
1054;SDS011;516;51.482;7.120;2022-10-16T07:37:21;4.50;;;2.93;;
1054;SDS011;516;51.482;7.120;2022-10-16T07:39:47;4.13;;;2.67;;
1054;SDS011;516;51.482;7.120;2022-10-16T07:42:13;10.73;;;2.87;;
1054;SDS011;516;51.482;7.120;2022-10-16T07:44:39;4.80;;;3.40;;
1054;SDS011;516;51.482;7.120;2022-10-16T07:47:05;6.77;;;2.67;;
1054;SDS011;516;51.482;7.120;2022-10-16T07:49:31;4.53;;;2.40;;
1054;SDS011;516;51.482;7.120;2022-10-16T07:51:57;3.00;;;2.70;;
1054;SDS011;516;51.482;7.120;2022-10-16T07:54:23;2.70;;;2.50;;
1054;SDS011;516;51.482;7.120;2022-10-16T07:56:48;6.70;;;2.43;;
1054;SDS011;516;51.482;7.120;2022-10-16T07:59:14;3.70;;;2.60;;
1054;SDS011;516;51.482;7.120;2022-10-16T08:01:49;3.67;;;2.67;;
1054;SDS011;516;51.482;7.120;2022-10-16T08:04:16;6.20;;;2.90;;
1054;SDS011;516;51.482;7.120;2022-10-16T08:06:41;2.80;;;2.50;;
1054;SDS011;516;51.482;7.120;2022-10-16T08:09:07;2.93;;;2.40;;
1054;SDS011;516;51.482;7.120;2022-10-16T08:11:34;2.53;;;2.33;;
1054;SDS011;516;51.482;7.120;2022-10-16T08:14:00;3.33;;;2.60;;
1054;SDS011;516;51.482;7.120;2022-10-16T08:16:26;5.33;;;3.27;;
1054;SDS011;516;51.482;7.120;2022-10-16T08:18:51;2.80;;;2.60;;
1054;SDS011;516;51.482;7.120;2022-10-16T08:21:18;2.90;;;2.43;;
1054;SDS011;516;51.482;7.120;2022-10-16T08:23:46;3.07;;;2.87;;
1054;SDS011;516;51.482;7.120;2022-10-16T08:26:12;6.37;;;3.27;;
1054;SDS011;516;51.482;7.120;2022-10-16T08:28:38;2.47;;;2.27;;
1054;SDS011;516;51.482;7.120;2022-10-16T08:31:13;6.63;;;3.00;;
1054;SDS011;516;51.482;7.120;2022-10-16T08:33:41;3.10;;;2.90;;
1054;SDS011;516;51.482;7.120;2022-10-16T08:36:09;5.70;;;2.90;;
1054;SDS011;516;51.482;7.120;2022-10-16T08:38:35;3.73;;;2.47;;
1054;SDS011;516;51.482;7.120;2022-10-16T08:44:05;3.03;;;2.83;;
1054;SDS011;516;51.482;7.120;2022-10-16T08:50:22;4.20;;;3.37;;
1054;SDS011;516;51.482;7.120;2022-10-16T08:52:45;2.90;;;2.63;;
1054;SDS011;516;51.482;7.120;2022-10-16T08:57:52;3.40;;;3.00;;
1054;SDS011;516;51.482;7.120;2022-10-16T09:00:18;5.80;;;3.00;;
1054;SDS011;516;51.482;7.120;2022-10-16T09:02:45;4.50;;;2.93;;
1054;SDS011;516;51.482;7.120;2022-10-16T09:11:13;3.83;;;2.93;;
1054;SDS011;516;51.482;7.120;2022-10-16T09:17:18;5.90;;;3.30;;
1054;SDS011;516;51.482;7.120;2022-10-16T09:19:46;2.70;;;2.50;;
1054;SDS011;516;51.482;7.120;2022-10-16T09:22:37;4.17;;;3.10;;
1054;SDS011;516;51.482;7.120;2022-10-16T09:25:11;3.00;;;2.80;;
1054;SDS011;516;51.482;7.120;2022-10-16T09:27:39;5.40;;;3.10;;
1054;SDS011;516;51.482;7.120;2022-10-16T09:30:15;3.40;;;2.80;;
1054;SDS011;516;51.482;7.120;2022-10-16T09:32:43;3.63;;;3.40;;
1054;SDS011;516;51.482;7.120;2022-10-16T09:35:16;4.07;;;2.60;;
1054;SDS011;516;51.482;7.120;2022-10-16T09:37:49;3.07;;;2.83;;
1054;SDS011;516;51.482;7.120;2022-10-16T09:40:32;3.10;;;2.90;;
1054;SDS011;516;51.482;7.120;2022-10-16T09:46:01;3.40;;;3.20;;
1054;SDS011;516;51.482;7.120;2022-10-16T09:48:35;3.60;;;2.83;;
1054;SDS011;516;51.482;7.120;2022-10-16T09:51:05;3.10;;;2.90;;
1054;SDS011;516;51.482;7.120;2022-10-16T09:53:42;2.87;;;2.67;;
1054;SDS011;516;51.482;7.120;2022-10-16T09:56:10;3.40;;;3.10;;
1054;SDS011;516;51.482;7.120;2022-10-16T09:58:41;3.20;;;2.90;;
1054;SDS011;516;51.482;7.120;2022-10-16T10:01:13;5.53;;;3.27;;
1054;SDS011;516;51.482;7.120;2022-10-16T10:03:41;4.43;;;3.00;;
1054;SDS011;516;51.482;7.120;2022-10-16T10:19:38;7.40;;;3.40;;
1054;SDS011;516;51.482;7.120;2022-10-16T10:22:16;3.73;;;3.53;;
1054;SDS011;516;51.482;7.120;2022-10-16T10:30:21;7.60;;;3.50;;
1054;SDS011;516;51.482;7.120;2022-10-16T10:33:24;7.60;;;3.60;;
1054;SDS011;516;51.482;7.120;2022-10-16T10:38:54;4.20;;;3.80;;
1054;SDS011;516;51.482;7.120;2022-10-16T10:52:28;4.00;;;3.80;;
1054;SDS011;516;51.482;7.120;2022-10-16T10:55:20;4.07;;;3.70;;
1054;SDS011;516;51.482;7.120;2022-10-16T11:01:01;4.00;;;3.60;;
1054;SDS011;516;51.482;7.120;2022-10-16T11:06:36;3.53;;;3.33;;
1054;SDS011;516;51.482;7.120;2022-10-16T11:12:31;3.90;;;3.60;;
1054;SDS011;516;51.482;7.120;2022-10-16T11:14:54;4.40;;;4.00;;
1054;SDS011;516;51.482;7.120;2022-10-16T11:17:42;8.73;;;4.10;;
1054;SDS011;516;51.482;7.120;2022-10-16T11:20:18;5.30;;;4.50;;
1054;SDS011;516;51.482;7.120;2022-10-16T11:22:52;4.13;;;3.93;;
1054;SDS011;516;51.482;7.120;2022-10-16T11:25:22;5.43;;;4.10;;
1054;SDS011;516;51.482;7.120;2022-10-16T11:31:00;4.20;;;3.80;;
1054;SDS011;516;51.482;7.120;2022-10-16T11:33:48;4.20;;;3.80;;
1054;SDS011;516;51.482;7.120;2022-10-16T11:36:50;4.50;;;4.17;;
1054;SDS011;516;51.482;7.120;2022-10-16T11:39:24;3.70;;;3.40;;
1054;SDS011;516;51.482;7.120;2022-10-16T11:44:33;9.53;;;4.00;;
1054;SDS011;516;51.482;7.120;2022-10-16T11:50:01;4.10;;;3.80;;
1054;SDS011;516;51.482;7.120;2022-10-16T11:52:58;3.80;;;3.50;;
1054;SDS011;516;51.482;7.120;2022-10-16T11:56:08;3.80;;;3.60;;
1054;SDS011;516;51.482;7.120;2022-10-16T11:58:37;4.40;;;4.20;;
1054;SDS011;516;51.482;7.120;2022-10-16T12:01:16;4.40;;;4.20;;
1054;SDS011;516;51.482;7.120;2022-10-16T12:06:40;5.00;;;4.50;;
1054;SDS011;516;51.482;7.120;2022-10-16T12:09:44;4.43;;;4.23;;
1054;SDS011;516;51.482;7.120;2022-10-16T12:12:04;4.83;;;4.53;;
1054;SDS011;516;51.482;7.120;2022-10-16T12:14:48;5.17;;;4.87;;
1054;SDS011;516;51.482;7.120;2022-10-16T12:17:35;4.70;;;4.40;;
1054;SDS011;516;51.482;7.120;2022-10-16T12:22:37;4.67;;;4.37;;
1054;SDS011;516;51.482;7.120;2022-10-16T12:30:40;4.53;;;4.23;;
1054;SDS011;516;51.482;7.120;2022-10-16T12:33:25;6.40;;;4.70;;
1054;SDS011;516;51.482;7.120;2022-10-16T12:35:55;4.23;;;4.00;;
1054;SDS011;516;51.482;7.120;2022-10-16T12:38:28;4.43;;;4.03;;
1054;SDS011;516;51.482;7.120;2022-10-16T12:41:04;4.70;;;4.40;;
1054;SDS011;516;51.482;7.120;2022-10-16T12:43:38;6.00;;;4.27;;
1054;SDS011;516;51.482;7.120;2022-10-16T12:48:34;5.20;;;4.73;;
1054;SDS011;516;51.482;7.120;2022-10-16T12:53:36;4.60;;;4.20;;
1054;SDS011;516;51.482;7.120;2022-10-16T13:09:43;6.47;;;5.37;;
1054;SDS011;516;51.482;7.120;2022-10-16T13:12:26;5.37;;;5.07;;
1054;SDS011;516;51.482;7.120;2022-10-16T13:20:50;5.50;;;5.20;;
1054;SDS011;516;51.482;7.120;2022-10-16T13:26:09;7.03;;;5.20;;
1054;SDS011;516;51.482;7.120;2022-10-16T13:28:38;4.83;;;4.40;;
1054;SDS011;516;51.482;7.120;2022-10-16T13:31:04;6.03;;;5.47;;
1054;SDS011;516;51.482;7.120;2022-10-16T13:33:36;5.53;;;5.23;;
1054;SDS011;516;51.482;7.120;2022-10-16T13:36:17;5.30;;;5.00;;
1054;SDS011;516;51.482;7.120;2022-10-16T13:39:26;4.80;;;4.50;;
1054;SDS011;516;51.482;7.120;2022-10-16T13:41:46;4.83;;;4.63;;
1054;SDS011;516;51.482;7.120;2022-10-16T13:44:25;4.97;;;4.60;;
1054;SDS011;516;51.482;7.120;2022-10-16T13:47:01;4.73;;;4.47;;
1054;SDS011;516;51.482;7.120;2022-10-16T13:49:27;5.03;;;4.63;;
1054;SDS011;516;51.482;7.120;2022-10-16T13:51:54;4.53;;;4.20;;
1054;SDS011;516;51.482;7.120;2022-10-16T13:54:21;4.70;;;4.50;;
1054;SDS011;516;51.482;7.120;2022-10-16T13:56:47;5.50;;;5.00;;
1054;SDS011;516;51.482;7.120;2022-10-16T13:59:26;4.80;;;4.50;;
1054;SDS011;516;51.482;7.120;2022-10-16T14:01:58;4.70;;;4.40;;
1054;SDS011;516;51.482;7.120;2022-10-16T14:04:26;4.73;;;4.50;;
1054;SDS011;516;51.482;7.120;2022-10-16T14:06:56;4.47;;;4.27;;
1054;SDS011;516;51.482;7.120;2022-10-16T14:09:23;5.03;;;4.73;;
1054;SDS011;516;51.482;7.120;2022-10-16T14:11:55;4.90;;;4.60;;
1054;SDS011;516;51.482;7.120;2022-10-16T14:14:52;5.20;;;4.80;;
1054;SDS011;516;51.482;7.120;2022-10-16T14:17:20;5.07;;;4.73;;
1054;SDS011;516;51.482;7.120;2022-10-16T14:19:49;5.03;;;4.80;;
1054;SDS011;516;51.482;7.120;2022-10-16T14:22:40;5.10;;;4.80;;
1054;SDS011;516;51.482;7.120;2022-10-16T14:30:54;4.40;;;4.10;;
1054;SDS011;516;51.482;7.120;2022-10-16T14:33:23;4.33;;;4.13;;
1054;SDS011;516;51.482;7.120;2022-10-16T14:36:05;4.60;;;4.30;;
1054;SDS011;516;51.482;7.120;2022-10-16T14:38:36;4.43;;;4.13;;
1054;SDS011;516;51.482;7.120;2022-10-16T14:41:04;4.13;;;3.80;;
1054;SDS011;516;51.482;7.120;2022-10-16T14:46:01;5.47;;;5.00;;
1054;SDS011;516;51.482;7.120;2022-10-16T14:48:39;8.03;;;7.27;;
1054;SDS011;516;51.482;7.120;2022-10-16T14:51:08;5.60;;;5.30;;
1054;SDS011;516;51.482;7.120;2022-10-16T14:53:39;5.40;;;5.00;;
1054;SDS011;516;51.482;7.120;2022-10-16T14:56:08;4.97;;;4.67;;
1054;SDS011;516;51.482;7.120;2022-10-16T14:58:44;5.43;;;5.03;;
1054;SDS011;516;51.482;7.120;2022-10-16T15:01:10;5.43;;;5.13;;
1054;SDS011;516;51.482;7.120;2022-10-16T15:03:37;5.00;;;4.80;;
1054;SDS011;516;51.482;7.120;2022-10-16T15:06:09;5.37;;;5.07;;
1054;SDS011;516;51.482;7.120;2022-10-16T15:08:37;5.90;;;5.50;;
1054;SDS011;516;51.482;7.120;2022-10-16T15:11:03;5.60;;;5.20;;
1054;SDS011;516;51.482;7.120;2022-10-16T15:13:29;6.00;;;5.60;;
1054;SDS011;516;51.482;7.120;2022-10-16T15:15:55;5.80;;;5.40;;
1054;SDS011;516;51.482;7.120;2022-10-16T15:18:20;5.53;;;5.23;;
1054;SDS011;516;51.482;7.120;2022-10-16T15:20:48;5.03;;;4.80;;
1054;SDS011;516;51.482;7.120;2022-10-16T15:23:19;5.20;;;4.80;;
1054;SDS011;516;51.482;7.120;2022-10-16T15:25:53;7.97;;;7.10;;
1054;SDS011;516;51.482;7.120;2022-10-16T15:28:20;23.33;;;20.83;;
1054;SDS011;516;51.482;7.120;2022-10-16T15:30:49;6.30;;;5.83;;
1054;SDS011;516;51.482;7.120;2022-10-16T15:33:17;6.60;;;6.20;;
1054;SDS011;516;51.482;7.120;2022-10-16T15:35:48;6.17;;;5.70;;
1054;SDS011;516;51.482;7.120;2022-10-16T15:38:15;6.03;;;5.67;;
1054;SDS011;516;51.482;7.120;2022-10-16T15:40:43;6.27;;;5.97;;
1054;SDS011;516;51.482;7.120;2022-10-16T15:43:09;7.83;;;5.23;;
1054;SDS011;516;51.482;7.120;2022-10-16T15:45:35;6.07;;;5.60;;
1054;SDS011;516;51.482;7.120;2022-10-16T15:48:01;6.93;;;6.40;;
1054;SDS011;516;51.482;7.120;2022-10-16T15:50:28;5.50;;;5.00;;
1054;SDS011;516;51.482;7.120;2022-10-16T15:52:54;9.40;;;5.97;;
1054;SDS011;516;51.482;7.120;2022-10-16T15:55:21;9.30;;;5.90;;
1054;SDS011;516;51.482;7.120;2022-10-16T15:57:47;5.03;;;4.53;;
1054;SDS011;516;51.482;7.120;2022-10-16T16:00:14;5.67;;;5.27;;
1054;SDS011;516;51.482;7.120;2022-10-16T16:02:43;4.90;;;4.50;;
1054;SDS011;516;51.482;7.120;2022-10-16T16:05:14;5.67;;;4.97;;
1054;SDS011;516;51.482;7.120;2022-10-16T16:07:43;5.33;;;4.83;;
1054;SDS011;516;51.482;7.120;2022-10-16T16:10:10;5.87;;;5.40;;
1054;SDS011;516;51.482;7.120;2022-10-16T16:12:37;6.20;;;5.60;;
1054;SDS011;516;51.482;7.120;2022-10-16T16:15:07;5.20;;;4.80;;
1054;SDS011;516;51.482;7.120;2022-10-16T16:17:34;5.60;;;5.10;;
1054;SDS011;516;51.482;7.120;2022-10-16T16:20:01;6.20;;;5.10;;
1054;SDS011;516;51.482;7.120;2022-10-16T16:22:28;5.50;;;5.00;;
1054;SDS011;516;51.482;7.120;2022-10-16T16:24:54;6.33;;;5.83;;
1054;SDS011;516;51.482;7.120;2022-10-16T16:27:20;5.83;;;5.43;;
1054;SDS011;516;51.482;7.120;2022-10-16T16:29:46;5.90;;;5.50;;
1054;SDS011;516;51.482;7.120;2022-10-16T16:32:12;5.70;;;5.30;;
1054;SDS011;516;51.482;7.120;2022-10-16T16:34:38;5.80;;;5.20;;
1054;SDS011;516;51.482;7.120;2022-10-16T16:37:04;6.47;;;5.80;;
1054;SDS011;516;51.482;7.120;2022-10-16T16:39:29;5.63;;;5.00;;
1054;SDS011;516;51.482;7.120;2022-10-16T16:41:55;5.63;;;5.13;;
1054;SDS011;516;51.482;7.120;2022-10-16T16:44:23;6.70;;;6.07;;
1054;SDS011;516;51.482;7.120;2022-10-16T16:46:50;7.23;;;5.83;;
1054;SDS011;516;51.482;7.120;2022-10-16T16:49:16;7.70;;;7.00;;
1054;SDS011;516;51.482;7.120;2022-10-16T16:51:42;7.50;;;5.97;;
1054;SDS011;516;51.482;7.120;2022-10-16T16:54:09;12.10;;;5.63;;
1054;SDS011;516;51.482;7.120;2022-10-16T16:56:36;6.13;;;5.53;;
1054;SDS011;516;51.482;7.120;2022-10-16T16:59:02;6.90;;;6.17;;
1054;SDS011;516;51.482;7.120;2022-10-16T17:01:28;7.90;;;7.10;;
1054;SDS011;516;51.482;7.120;2022-10-16T17:03:56;7.33;;;6.60;;
1054;SDS011;516;51.482;7.120;2022-10-16T17:06:26;8.73;;;6.07;;
1054;SDS011;516;51.482;7.120;2022-10-16T17:08:54;7.17;;;6.30;;
1054;SDS011;516;51.482;7.120;2022-10-16T17:11:21;6.40;;;5.80;;
1054;SDS011;516;51.482;7.120;2022-10-16T17:13:50;7.50;;;6.10;;
1054;SDS011;516;51.482;7.120;2022-10-16T17:16:17;7.30;;;6.13;;
1054;SDS011;516;51.482;7.120;2022-10-16T17:18:43;7.20;;;6.47;;
1054;SDS011;516;51.482;7.120;2022-10-16T17:21:09;8.33;;;6.90;;
1054;SDS011;516;51.482;7.120;2022-10-16T17:23:35;8.23;;;7.00;;
1054;SDS011;516;51.482;7.120;2022-10-16T17:26:05;8.40;;;6.60;;
1054;SDS011;516;51.482;7.120;2022-10-16T17:28:38;11.30;;;7.63;;
1054;SDS011;516;51.482;7.120;2022-10-16T17:31:08;12.77;;;7.33;;
1054;SDS011;516;51.482;7.120;2022-10-16T17:33:35;7.27;;;5.97;;
1054;SDS011;516;51.482;7.120;2022-10-16T17:36:01;7.77;;;7.00;;
1054;SDS011;516;51.482;7.120;2022-10-16T17:38:26;10.17;;;6.47;;
1054;SDS011;516;51.482;7.120;2022-10-16T17:40:52;18.30;;;13.70;;
1054;SDS011;516;51.482;7.120;2022-10-16T17:43:18;8.33;;;7.50;;
1054;SDS011;516;51.482;7.120;2022-10-16T17:45:43;8.83;;;7.83;;
1054;SDS011;516;51.482;7.120;2022-10-16T17:48:09;7.50;;;6.90;;
1054;SDS011;516;51.482;7.120;2022-10-16T17:50:38;7.07;;;6.10;;
1054;SDS011;516;51.482;7.120;2022-10-16T17:53:04;8.00;;;7.03;;
1054;SDS011;516;51.482;7.120;2022-10-16T17:55:30;7.50;;;6.80;;
1054;SDS011;516;51.482;7.120;2022-10-16T17:58:01;18.53;;;7.47;;
1054;SDS011;516;51.482;7.120;2022-10-16T18:00:27;9.60;;;6.70;;